Terminal Aerodrome Forecast
Issued by NWS Lake Charles, LA

Home | Current Version | Previous Version | Text Only | Print | Product List | Glossary On
Versions: 1 2 3 4 5 6 7 8 9 10 11 12 13 14 15
514
FTUS44 KLCH 212320
TAFAEX
TAF
KAEX 212320Z 2200/2224 VRB04KT P6SM FEW100 BKN250
      TEMPO 2209/2213 3SM BR
     FM221500 29004KT P6SM SCT040 SCT250=

USA.gov is the U.S. government's official web portal to all federal, state and local government web resources and services.